createdAt,value
2023-04-15T00:01:05.978Z,88.78
2023-04-15T00:06:07.650Z,89.68
2023-04-15T00:11:09.197Z,89.19
2023-04-15T00:16:10.964Z,89.22
2023-04-15T00:21:12.478Z,88.81
2023-04-15T00:26:14.220Z,90.02
2023-04-15T00:31:16.307Z,89.15
2023-04-15T00:36:17.696Z,88.05
2023-04-15T00:41:19.478Z,87.62
2023-04-15T00:46:21.421Z,89.48
2023-04-15T00:51:23.422Z,89.73
2023-04-15T00:56:25.851Z,89.90
2023-04-15T01:01:28.807Z,89.13
2023-04-15T01:06:33.499Z,90.06
2023-04-15T01:11:35.617Z,89.23
2023-04-15T01:16:39.816Z,89.26
2023-04-15T01:21:41.603Z,88.48
2023-04-15T01:26:44.557Z,89.27
2023-04-15T01:31:53.670Z,89.66
2023-04-15T01:36:55.575Z,89.35
2023-04-15T01:41:57.505Z,89.31
2023-04-15T01:46:59.336Z,89.71
2023-04-15T01:52:01.595Z,89.32
2023-04-15T01:57:03.620Z,89.00
2023-04-15T02:02:05.550Z,90.20
2023-04-15T02:07:07.129Z,91.02
2023-04-15T02:12:10.184Z,90.71
2023-04-15T02:17:11.633Z,91.02
2023-04-15T02:22:18.200Z,91.08
2023-04-15T02:27:22.462Z,90.90
2023-04-15T02:32:25.146Z,91.20
2023-04-15T02:37:30.460Z,89.78
2023-04-15T02:42:32.847Z,88.88
2023-04-15T02:47:36.324Z,88.06
2023-04-15T02:52:41.637Z,89.54
2023-04-15T02:57:43.799Z,89.32
2023-04-15T03:02:47.018Z,90.42
2023-04-15T03:07:48.645Z,91.46
2023-04-15T03:12:50.341Z,91.58
2023-04-15T03:17:54.172Z,91.14
2023-04-15T03:22:55.664Z,90.68
2023-04-15T03:28:00.689Z,91.08
2023-04-15T03:33:02.347Z,90.13
2023-04-15T03:38:04.097Z,89.64
2023-04-15T03:43:05.700Z,90.50
2023-04-15T03:48:17.323Z,89.91
2023-04-15T03:53:21.371Z,90.22
2023-04-15T03:58:22.905Z,90.56
2023-04-15T04:03:24.527Z,90.56
2023-04-15T04:08:27.490Z,89.23
2023-04-15T04:13:28.965Z,87.88
2023-04-15T04:18:34.342Z,87.28
2023-04-15T04:23:35.766Z,88.51
2023-04-15T04:28:37.290Z,90.38
2023-04-15T04:33:39.904Z,90.63
2023-04-15T04:38:41.403Z,90.60
2023-04-15T04:43:42.835Z,90.72
2023-04-15T04:48:46.617Z,90.06
2023-04-15T04:53:48.692Z,89.09
2023-04-15T04:58:50.164Z,90.05
2023-04-15T05:03:51.769Z,89.43
2023-04-15T05:08:53.337Z,89.21
2023-04-15T05:13:54.798Z,89.61
2023-04-15T05:18:56.701Z,89.38
2023-04-15T05:23:58.071Z,90.25
2023-04-15T05:29:05.810Z,89.98
2023-04-15T05:34:12.941Z,89.76
2023-04-15T05:39:14.497Z,89.25
2023-04-15T05:44:16.289Z,88.67
2023-04-15T05:49:17.887Z,88.09
2023-04-15T05:54:23.388Z,87.53
2023-04-15T05:59:25.138Z,87.45
2023-04-15T06:04:29.650Z,88.55
2023-04-15T06:09:31.331Z,88.95
2023-04-15T06:14:32.982Z,89.48
2023-04-15T06:19:38.657Z,89.92
2023-04-15T06:24:42.712Z,90.88
2023-04-15T06:29:44.912Z,90.40
2023-04-15T06:34:46.297Z,91.30
2023-04-15T06:39:47.892Z,90.80
2023-04-15T06:44:49.743Z,91.57
2023-04-15T06:49:51.925Z,91.74
2023-04-15T06:54:53.407Z,91.27
2023-04-15T06:59:54.973Z,91.16
2023-04-15T07:04:56.934Z,91.65
2023-04-15T07:09:58.446Z,91.61
2023-04-15T07:14:59.927Z,91.12
2023-04-15T07:20:01.499Z,91.53
2023-04-15T07:25:03.185Z,91.29
2023-04-15T07:30:09.426Z,91.52
2023-04-15T07:35:11.803Z,91.69
2023-04-15T07:40:16.126Z,91.43
2023-04-15T07:45:17.610Z,92.07
2023-04-15T07:50:19.773Z,91.64
2023-04-15T07:55:23.315Z,91.85
2023-04-15T08:00:24.833Z,91.70
2023-04-15T08:05:26.262Z,91.52
2023-04-15T08:10:30.035Z,91.31
2023-04-15T08:15:32.921Z,91.58
2023-04-15T08:20:34.502Z,91.11
2023-04-15T08:25:40.752Z,91.21
2023-04-15T08:30:44.672Z,91.04
2023-04-15T08:35:46.768Z,90.60
2023-04-15T08:40:48.527Z,90.61
2023-04-15T08:45:52.173Z,90.21
2023-04-15T08:50:53.809Z,90.09
2023-04-15T08:55:59.874Z,90.22
2023-04-15T09:01:01.648Z,89.67
2023-04-15T09:06:05.867Z,89.99
2023-04-15T09:11:07.329Z,89.81
2023-04-15T09:16:09.336Z,89.60
2023-04-15T09:21:13.129Z,88.81
2023-04-15T09:26:16.963Z,88.69
2023-04-15T09:31:29.429Z,88.39
2023-04-15T09:36:51.803Z,88.74
2023-04-15T09:42:07.085Z,88.45
2023-04-15T09:47:08.526Z,86.97
2023-04-15T09:52:13.957Z,87.14
2023-04-15T09:57:15.762Z,86.05
2023-04-15T10:02:20.793Z,85.75
2023-04-15T10:08:14.203Z,85.75
2023-04-15T10:13:24.618Z,85.16
2023-04-15T10:18:28.187Z,84.98
2023-04-15T10:23:30.441Z,85.23
2023-04-15T10:28:32.146Z,84.65
2023-04-15T10:33:34.651Z,84.34
2023-04-15T10:38:40.114Z,84.65
2023-04-15T10:44:09.487Z,84.01
2023-04-15T10:49:32.758Z,83.91
2023-04-15T11:00:22.548Z,83.72
2023-04-15T11:05:45.792Z,83.21
2023-04-15T11:10:52.836Z,82.81
2023-04-15T11:23:15.361Z,82.07
2023-04-15T11:42:03.057Z,82.73
2023-04-15T11:47:23.346Z,82.45
2023-04-15T11:57:51.547Z,81.86
2023-04-15T12:03:30.417Z,81.23
2023-04-15T12:08:51.138Z,80.85
2023-04-15T12:14:20.919Z,80.79
2023-04-15T12:19:36.079Z,80.91
2023-04-15T12:24:38.747Z,80.62
2023-04-15T12:30:11.999Z,80.33
2023-04-15T12:35:17.965Z,81.03
2023-04-15T12:53:16.609Z,79.78
2023-04-15T12:58:43.331Z,79.13
2023-04-15T13:03:51.284Z,80.08
2023-04-15T13:09:23.263Z,79.36
2023-04-15T13:14:25.022Z,79.45
2023-04-15T13:19:26.782Z,79.34
2023-04-15T13:24:28.460Z,79.76
2023-04-15T13:35:06.471Z,78.38
2023-04-15T13:40:45.457Z,77.79
2023-04-15T13:45:51.718Z,77.79
2023-04-15T13:50:53.299Z,78.25
2023-04-15T13:55:54.868Z,77.39
2023-04-15T14:00:57.043Z,77.78
2023-04-15T14:05:59.498Z,76.57
2023-04-15T14:11:01.314Z,77.00
2023-04-15T14:16:05.903Z,76.25
2023-04-15T14:34:23.801Z,75.18
2023-04-15T15:06:08.983Z,78.31
2023-04-15T15:11:21.019Z,79.94
2023-04-15T15:16:24.491Z,78.13
2023-04-15T15:40:35.592Z,73.41
2023-04-15T15:45:47.264Z,73.03
2023-04-15T15:51:09.133Z,77.96
2023-04-15T15:56:10.776Z,77.52
2023-04-15T16:01:12.248Z,74.38
2023-04-15T16:06:13.711Z,76.97
2023-04-15T16:11:15.348Z,77.07
2023-04-15T16:16:16.836Z,77.27
2023-04-15T16:21:19.464Z,76.52
2023-04-15T16:26:20.913Z,77.28
2023-04-15T16:31:22.364Z,77.71
2023-04-15T16:36:23.956Z,77.03
2023-04-15T16:41:25.467Z,76.60
2023-04-15T16:46:27.067Z,76.61
2023-04-15T16:51:30.476Z,76.33
2023-04-15T16:56:31.928Z,76.57
2023-04-15T17:01:33.430Z,75.58
2023-04-15T17:06:35.027Z,75.78
2023-04-15T17:11:38.660Z,75.23
2023-04-15T17:16:40.291Z,75.70
2023-04-15T17:21:41.910Z,75.45
2023-04-15T17:26:43.738Z,75.14
2023-04-15T17:31:45.406Z,75.15
2023-04-15T17:36:47.880Z,74.94
2023-04-15T17:41:49.309Z,75.70
2023-04-15T17:46:50.912Z,74.54
2023-04-15T17:51:54.790Z,74.15
2023-04-15T17:56:56.800Z,74.20
2023-04-15T18:01:58.513Z,74.29
2023-04-15T18:07:00.140Z,74.78
2023-04-15T18:12:02.158Z,75.28
2023-04-15T18:17:03.797Z,75.54
2023-04-15T18:22:05.476Z,76.20
2023-04-15T18:27:06.952Z,75.88
2023-04-15T18:32:08.406Z,76.13
2023-04-15T18:37:09.966Z,76.00
2023-04-15T18:42:11.564Z,76.29
2023-04-15T18:47:13.374Z,76.90
2023-04-15T18:52:14.941Z,77.41
2023-04-15T18:57:22.809Z,78.83
2023-04-15T19:02:30.253Z,77.97
2023-04-15T19:07:31.771Z,76.26
2023-04-15T19:12:33.420Z,75.14
2023-04-15T19:17:34.935Z,73.94
2023-04-15T19:22:36.831Z,74.18
2023-04-15T19:27:38.403Z,73.73
2023-04-15T19:32:42.372Z,73.39
2023-04-15T19:37:47.695Z,73.68
2023-04-15T19:42:49.161Z,73.77
2023-04-15T19:47:50.891Z,74.60
2023-04-15T19:52:52.884Z,74.46
2023-04-15T19:57:54.511Z,74.96
2023-04-15T20:02:56.515Z,73.59
2023-04-15T20:07:59.822Z,73.45
2023-04-15T20:13:01.581Z,73.25
2023-04-15T20:18:03.225Z,72.95
2023-04-15T20:23:04.830Z,73.69
2023-04-15T20:28:06.194Z,74.69
2023-04-15T20:33:08.050Z,73.39
2023-04-15T20:38:09.604Z,73.06
2023-04-15T20:43:11.264Z,73.18
2023-04-15T20:48:12.801Z,73.30
2023-04-15T20:53:14.444Z,72.85
2023-04-15T20:58:16.032Z,72.46
2023-04-15T21:03:17.626Z,72.08
2023-04-15T21:08:20.301Z,72.53
2023-04-15T21:13:22.545Z,72.82
2023-04-15T21:18:24.040Z,72.59
2023-04-15T21:23:26.147Z,72.47
2023-04-15T21:28:30.904Z,72.62
2023-04-15T21:33:32.340Z,72.38
2023-04-15T21:38:33.989Z,73.17
2023-04-15T21:43:38.390Z,73.69
2023-04-15T21:48:39.925Z,72.71
2023-04-15T21:53:41.345Z,73.62
2023-04-15T21:58:42.969Z,73.19
2023-04-15T22:03:44.868Z,73.83
2023-04-15T22:08:56.195Z,73.47
2023-04-15T22:13:59.355Z,72.78
2023-04-15T22:19:02.582Z,73.61
2023-04-15T22:24:32.593Z,73.84
2023-04-15T22:29:26.120Z,73.02
2023-04-15T22:34:27.568Z,73.21
2023-04-15T22:39:29.014Z,77.10
2023-04-15T22:44:30.447Z,74.58
2023-04-15T22:49:31.933Z,74.01
2023-04-15T22:54:33.366Z,73.35
2023-04-15T22:59:34.788Z,73.51
2023-04-15T23:04:36.369Z,73.46
2023-04-15T23:09:39.217Z,73.16
2023-04-15T23:14:40.689Z,73.43
2023-04-15T23:19:42.132Z,74.17
2023-04-15T23:24:43.548Z,73.35
2023-04-15T23:29:45.104Z,74.23
2023-04-15T23:34:46.528Z,74.29
2023-04-15T23:39:47.974Z,74.03
2023-04-15T23:44:49.464Z,74.02
2023-04-15T23:49:50.906Z,73.98
2023-04-15T23:54:52.376Z,74.11
2023-04-15T23:59:53.882Z,73.64
